createdAt,value
2022-12-25T00:00:02.171Z,23.13
2022-12-25T00:02:31.676Z,25.00
2022-12-25T00:04:58.924Z,24.63
2022-12-25T00:07:25.928Z,23.45
2022-12-25T00:09:52.954Z,21.67
2022-12-25T00:12:21.088Z,22.27
2022-12-25T00:14:48.517Z,21.90
2022-12-25T00:17:15.720Z,20.73
2022-12-25T00:19:42.689Z,21.52
2022-12-25T00:22:09.678Z,20.90
2022-12-25T00:24:36.637Z,19.35
2022-12-25T00:27:03.762Z,19.90
2022-12-25T00:29:30.746Z,20.23
2022-12-25T00:31:57.782Z,19.00
2022-12-25T00:34:24.821Z,18.33
2022-12-25T00:36:52.169Z,14.98
2022-12-25T00:39:19.649Z,15.77
2022-12-25T00:42:05.829Z,14.55
2022-12-25T00:44:32.922Z,13.00
2022-12-25T00:46:59.991Z,12.55
2022-12-25T00:49:27.228Z,11.70
2022-12-25T00:51:54.491Z,10.85
2022-12-25T00:54:21.856Z,11.15
2022-12-25T00:56:49.135Z,10.77
2022-12-25T00:59:16.167Z,9.63
2022-12-25T01:01:43.243Z,9.68
2022-12-25T01:04:11.641Z,9.20
2022-12-25T01:06:39.444Z,8.98
2022-12-25T01:09:25.131Z,9.23
2022-12-25T01:11:52.258Z,7.85
2022-12-25T01:14:19.468Z,9.50
2022-12-25T01:16:46.669Z,9.88
2022-12-25T01:19:13.665Z,10.00
2022-12-25T01:21:40.697Z,10.15
2022-12-25T01:24:08.055Z,10.57
2022-12-25T01:26:35.103Z,10.57
2022-12-25T01:29:02.707Z,9.70
2022-12-25T01:31:29.922Z,10.20
2022-12-25T01:33:56.909Z,9.35
2022-12-25T01:36:26.071Z,8.95
2022-12-25T01:38:54.390Z,9.63
2022-12-25T01:41:24.242Z,9.10
2022-12-25T01:44:26.043Z,8.57
2022-12-25T01:46:53.073Z,8.77
2022-12-25T01:49:25.778Z,8.88
2022-12-25T01:51:52.720Z,8.82
2022-12-25T01:54:33.391Z,9.25
2022-12-25T01:57:05.613Z,9.35
2022-12-25T01:59:33.097Z,9.48
2022-12-25T02:02:00.764Z,10.52
2022-12-25T02:04:40.993Z,10.27
2022-12-25T02:07:10.192Z,10.13
2022-12-25T02:09:38.292Z,10.32
2022-12-25T02:12:06.472Z,10.00
2022-12-25T02:14:36.650Z,9.98
2022-12-25T02:17:21.513Z,11.18
2022-12-25T02:20:27.841Z,11.32
2022-12-25T02:23:16.721Z,11.23
2022-12-25T02:25:58.860Z,10.73
2022-12-25T02:28:47.770Z,11.48
2022-12-25T02:31:34.290Z,10.30
2022-12-25T02:34:21.636Z,10.95
2022-12-25T02:37:06.789Z,11.30
2022-12-25T02:39:58.730Z,11.93
2022-12-25T02:42:56.244Z,11.55
2022-12-25T02:45:57.427Z,12.40
2022-12-25T02:48:47.749Z,12.38
2022-12-25T02:51:37.020Z,11.15
2022-12-25T02:54:27.966Z,12.48
2022-12-25T02:57:15.727Z,13.80
2022-12-25T03:00:05.583Z,14.80
2022-12-25T03:02:52.371Z,16.45
2022-12-25T03:05:41.771Z,15.90
2022-12-25T03:08:13.876Z,13.90
2022-12-25T03:11:04.682Z,17.25
2022-12-25T03:13:38.256Z,17.35
2022-12-25T03:16:25.279Z,17.08
2022-12-25T03:18:55.987Z,17.02
2022-12-25T03:21:41.433Z,17.35
2022-12-25T03:24:26.754Z,15.27
2022-12-25T03:26:56.953Z,16.80
2022-12-25T03:29:51.680Z,16.08
2022-12-25T03:32:37.343Z,15.73
2022-12-25T03:35:30.861Z,14.48
2022-12-25T03:38:19.446Z,14.60
2022-12-25T03:41:10.826Z,12.90
2022-12-25T03:44:04.723Z,14.07
2022-12-25T03:46:54.673Z,13.68
2022-12-25T03:49:50.726Z,13.45
2022-12-25T03:52:38.546Z,13.77
2022-12-25T03:55:29.057Z,14.20
2022-12-25T03:58:14.921Z,14.50
2022-12-25T04:01:00.932Z,13.77
2022-12-25T04:03:46.842Z,14.20
2022-12-25T04:06:32.418Z,13.63
2022-12-25T04:09:18.125Z,10.88
2022-12-25T04:12:04.069Z,14.25
2022-12-25T04:14:49.715Z,14.95
2022-12-25T04:17:35.306Z,14.88
2022-12-25T04:20:21.072Z,14.25
2022-12-25T04:23:06.547Z,15.23
2022-12-25T04:25:52.328Z,15.57
2022-12-25T04:28:37.984Z,15.50
2022-12-25T04:31:23.452Z,16.23
2022-12-25T04:34:09.153Z,15.90
2022-12-25T04:36:36.201Z,16.80
2022-12-25T04:39:03.451Z,16.33
2022-12-25T04:41:30.489Z,15.43
2022-12-25T04:43:57.482Z,17.05
2022-12-25T04:46:24.621Z,15.73
2022-12-25T04:48:51.593Z,16.25
2022-12-25T04:51:23.850Z,18.05
2022-12-25T04:53:52.441Z,17.33
2022-12-25T04:56:20.575Z,16.92
2022-12-25T04:58:49.209Z,17.38
2022-12-25T05:01:17.397Z,16.52
2022-12-25T05:03:44.686Z,17.25
2022-12-25T05:06:11.801Z,16.50
2022-12-25T05:08:39.170Z,16.23
2022-12-25T05:11:11.667Z,15.93
2022-12-25T05:13:39.335Z,15.00
2022-12-25T05:16:15.215Z,15.95
2022-12-25T05:18:42.500Z,15.60
2022-12-25T05:21:11.588Z,15.10
2022-12-25T05:23:38.818Z,15.07
2022-12-25T05:26:07.290Z,13.70
2022-12-25T05:28:35.799Z,13.70
2022-12-25T05:31:03.561Z,13.85
2022-12-25T05:33:30.732Z,13.13
2022-12-25T05:35:57.689Z,14.07
2022-12-25T05:38:24.767Z,14.63
2022-12-25T05:40:52.094Z,15.15
2022-12-25T05:43:19.683Z,15.95
2022-12-25T05:45:46.748Z,16.58
2022-12-25T05:48:13.817Z,16.67
2022-12-25T05:50:40.806Z,16.23
2022-12-25T05:53:13.096Z,16.70
2022-12-25T05:55:43.662Z,17.10
2022-12-25T05:58:12.713Z,17.70
2022-12-25T06:00:41.051Z,17.33
2022-12-25T06:03:08.192Z,17.45
2022-12-25T06:05:38.870Z,17.08
2022-12-25T06:08:05.965Z,17.60
2022-12-25T06:10:33.060Z,18.00
2022-12-25T06:13:00.880Z,18.75
2022-12-25T06:15:27.922Z,18.25
2022-12-25T06:17:55.112Z,19.13
2022-12-25T06:20:22.192Z,19.73
2022-12-25T06:22:49.270Z,19.25
2022-12-25T06:25:16.928Z,20.40
2022-12-25T06:27:44.281Z,21.17
2022-12-25T06:30:11.456Z,22.00
2022-12-25T06:32:38.740Z,21.23
2022-12-25T06:35:06.271Z,21.42
2022-12-25T06:37:33.353Z,20.73
2022-12-25T06:40:00.537Z,20.75
2022-12-25T06:42:27.659Z,20.48
2022-12-25T06:44:54.615Z,21.45
2022-12-25T06:47:21.762Z,21.20
2022-12-25T06:49:48.873Z,21.38
2022-12-25T06:52:15.944Z,21.42
2022-12-25T06:54:42.964Z,22.08
2022-12-25T06:57:10.783Z,22.98
2022-12-25T06:59:37.857Z,23.25
2022-12-25T07:02:05.127Z,22.13
2022-12-25T07:04:38.055Z,23.20
2022-12-25T07:07:09.240Z,19.02
2022-12-25T07:09:39.286Z,23.95
2022-12-25T07:12:08.241Z,22.65
2022-12-25T07:14:35.222Z,23.55
2022-12-25T07:17:02.271Z,22.58
2022-12-25T07:19:29.240Z,20.60
2022-12-25T07:21:56.530Z,19.85
2022-12-25T07:24:24.118Z,19.02
2022-12-25T07:26:51.831Z,18.23
2022-12-25T07:29:19.824Z,18.20
2022-12-25T07:31:47.897Z,17.35
2022-12-25T07:34:16.478Z,16.10
2022-12-25T07:36:43.447Z,16.45
2022-12-25T07:39:11.414Z,15.45
2022-12-25T07:41:38.528Z,14.88
2022-12-25T07:44:15.529Z,14.77
2022-12-25T07:46:42.682Z,15.02
2022-12-25T07:49:11.321Z,14.70
2022-12-25T07:51:38.694Z,14.25
2022-12-25T07:54:06.822Z,13.98
2022-12-25T07:56:34.014Z,15.43
2022-12-25T07:59:01.037Z,16.30
2022-12-25T08:01:28.488Z,17.02
2022-12-25T08:04:01.129Z,16.23
2022-12-25T08:06:32.758Z,16.30
2022-12-25T08:09:08.330Z,15.27
2022-12-25T08:11:35.484Z,15.45
2022-12-25T08:14:05.033Z,14.95
2022-12-25T08:16:32.130Z,14.68
2022-12-25T08:18:59.725Z,14.68
2022-12-25T08:21:27.074Z,13.35
2022-12-25T08:23:54.120Z,13.75
2022-12-25T08:26:23.234Z,14.25
2022-12-25T08:28:50.710Z,14.65
2022-12-25T08:31:24.126Z,14.32
2022-12-25T08:33:54.986Z,13.63
2022-12-25T08:36:22.703Z,13.88
2022-12-25T08:38:50.362Z,13.60
2022-12-25T08:41:18.267Z,13.57
2022-12-25T08:43:45.786Z,13.05
2022-12-25T08:46:13.063Z,14.23
2022-12-25T08:48:43.237Z,13.95
2022-12-25T08:51:16.167Z,14.52
2022-12-25T08:53:44.462Z,14.13
2022-12-25T08:56:11.929Z,13.82
2022-12-25T08:58:39.061Z,12.52
2022-12-25T09:01:06.989Z,13.30
2022-12-25T09:03:34.887Z,13.73
2022-12-25T09:06:07.400Z,12.77
2022-12-25T09:08:35.650Z,12.70
2022-12-25T09:11:08.355Z,16.63
2022-12-25T09:13:35.587Z,15.27
2022-12-25T09:16:11.934Z,21.45
2022-12-25T09:18:39.393Z,20.92
2022-12-25T09:21:09.652Z,22.48
2022-12-25T09:23:36.687Z,18.20
2022-12-25T09:26:06.043Z,16.50
2022-12-25T09:28:33.499Z,17.98
2022-12-25T09:31:00.674Z,17.00
2022-12-25T09:33:28.240Z,16.85
2022-12-25T09:35:56.426Z,17.50
2022-12-25T09:38:23.618Z,18.25
2022-12-25T09:41:05.648Z,15.95
2022-12-25T09:43:39.771Z,15.77
2022-12-25T09:46:13.628Z,15.27
2022-12-25T09:48:46.007Z,14.32
2022-12-25T09:51:18.549Z,15.32
2022-12-25T09:54:04.647Z,15.07
2022-12-25T09:56:33.501Z,14.77
2022-12-25T09:59:00.484Z,15.40
2022-12-25T10:01:33.761Z,14.27
2022-12-25T10:04:37.491Z,18.27
2022-12-25T10:07:30.918Z,16.85
2022-12-25T10:10:23.949Z,16.30
2022-12-25T10:13:05.884Z,16.75
2022-12-25T10:16:08.460Z,17.70
2022-12-25T10:18:35.561Z,15.50
2022-12-25T10:21:11.055Z,15.93
2022-12-25T10:24:18.701Z,18.60
2022-12-25T10:26:45.814Z,20.45
2022-12-25T10:29:16.136Z,21.67
2022-12-25T10:31:46.919Z,20.50
2022-12-25T10:34:15.753Z,22.30
2022-12-25T10:36:45.811Z,19.48
2022-12-25T10:39:21.573Z,16.98
2022-12-25T10:41:57.033Z,17.67
2022-12-25T10:44:26.900Z,17.40
2022-12-25T10:46:59.045Z,14.77
2022-12-25T10:49:34.279Z,15.65
2022-12-25T10:52:02.688Z,15.65
2022-12-25T10:54:35.790Z,15.52
2022-12-25T10:57:10.274Z,14.77
2022-12-25T10:59:45.532Z,17.08
2022-12-25T11:02:49.383Z,14.52
2022-12-25T11:05:34.339Z,14.07
2022-12-25T11:08:03.380Z,16.02
2022-12-25T11:10:44.146Z,15.15
2022-12-25T11:13:21.839Z,21.85
2022-12-25T11:15:50.243Z,16.55
2022-12-25T11:18:19.733Z,16.95
2022-12-25T11:20:51.934Z,16.08
2022-12-25T11:23:21.699Z,14.98
2022-12-25T11:25:57.125Z,14.68
2022-12-25T11:28:26.223Z,15.38
2022-12-25T11:31:00.761Z,15.07
2022-12-25T11:33:40.334Z,15.20
2022-12-25T11:36:17.507Z,14.05
2022-12-25T11:38:44.778Z,13.85
2022-12-25T11:41:15.377Z,15.80
2022-12-25T11:43:59.523Z,12.18
2022-12-25T11:46:37.904Z,13.00
2022-12-25T11:49:16.414Z,13.27
2022-12-25T11:51:47.376Z,12.85
2022-12-25T11:54:38.869Z,13.00
2022-12-25T11:57:11.468Z,12.88
2022-12-25T11:59:49.977Z,12.57
2022-12-25T12:02:27.094Z,12.60
2022-12-25T12:05:11.919Z,11.35
2022-12-25T12:07:58.738Z,12.25
2022-12-25T12:10:51.967Z,11.68
2022-12-25T12:13:36.172Z,12.05
2022-12-25T12:16:06.020Z,11.77
2022-12-25T12:18:34.123Z,11.85
2022-12-25T12:21:06.104Z,10.95
2022-12-25T12:23:56.331Z,10.50
2022-12-25T12:26:26.105Z,9.55
2022-12-25T12:28:56.153Z,8.77
2022-12-25T12:31:23.852Z,9.55
2022-12-25T12:33:53.425Z,9.80
2022-12-25T12:36:29.231Z,8.07
2022-12-25T12:39:02.549Z,8.43
2022-12-25T12:41:47.522Z,6.70
2022-12-25T12:44:17.351Z,7.07
2022-12-25T12:46:56.695Z,7.43
2022-12-25T12:49:27.056Z,6.80
2022-12-25T12:52:23.131Z,7.80
2022-12-25T12:55:13.268Z,9.27
2022-12-25T12:57:41.241Z,9.52
2022-12-25T13:00:19.970Z,10.18
2022-12-25T13:03:04.981Z,9.38
2022-12-25T13:05:37.960Z,11.20
2022-12-25T13:08:04.946Z,14.43
2022-12-25T13:10:37.473Z,15.80
2022-12-25T13:13:17.783Z,17.20
2022-12-25T13:15:48.002Z,18.63
2022-12-25T13:18:15.354Z,21.25
2022-12-25T13:21:04.896Z,21.83
2022-12-25T13:23:36.828Z,23.20
2022-12-25T13:26:14.895Z,23.75
2022-12-25T13:28:41.915Z,23.58
2022-12-25T13:31:22.146Z,21.38
2022-12-25T13:34:02.584Z,22.42
2022-12-25T13:36:34.988Z,21.30
2022-12-25T13:39:02.390Z,23.30
2022-12-25T13:42:04.495Z,20.90
2022-12-25T13:44:51.950Z,22.60
2022-12-25T13:47:27.640Z,21.65
2022-12-25T13:49:56.246Z,21.98
2022-12-25T13:52:37.443Z,21.48
2022-12-25T13:55:19.436Z,19.90
2022-12-25T13:57:55.469Z,20.90
2022-12-25T14:00:32.649Z,20.90
2022-12-25T14:03:00.460Z,20.25
2022-12-25T14:05:42.758Z,19.35
2022-12-25T14:08:22.894Z,19.45
2022-12-25T14:10:51.940Z,19.25
2022-12-25T14:13:22.422Z,19.40
2022-12-25T14:15:51.395Z,19.20
2022-12-25T14:18:21.077Z,19.00
2022-12-25T14:21:01.179Z,19.45
2022-12-25T14:23:41.346Z,18.40
2022-12-25T14:26:19.826Z,20.02
2022-12-25T14:29:10.170Z,19.88
2022-12-25T14:31:42.991Z,19.90
2022-12-25T14:34:22.715Z,19.50
2022-12-25T14:36:52.159Z,20.05
2022-12-25T14:39:33.442Z,20.38
2022-12-25T14:42:02.477Z,20.00
2022-12-25T14:44:36.867Z,20.83
2022-12-25T14:47:22.151Z,21.25
2022-12-25T14:49:49.662Z,21.00
2022-12-25T14:52:24.872Z,20.85
2022-12-25T14:55:01.586Z,19.92
2022-12-25T14:57:40.563Z,21.98
2022-12-25T15:00:23.221Z,24.70
2022-12-25T15:02:53.323Z,25.90
2022-12-25T15:05:39.580Z,23.75
2022-12-25T15:08:12.546Z,23.17
2022-12-25T15:13:28.902Z,30.80
2022-12-25T15:16:14.185Z,37.75
2022-12-25T15:18:44.320Z,58.15
2022-12-25T15:21:33.092Z,47.33
2022-12-25T15:24:00.765Z,40.80
2022-12-25T15:26:29.777Z,17.27
2022-12-25T15:28:57.272Z,12.80
2022-12-25T15:31:30.440Z,8.98
2022-12-25T15:34:00.804Z,9.07
2022-12-25T15:36:28.277Z,7.70
2022-12-25T15:38:55.902Z,5.70
2022-12-25T15:41:51.250Z,6.50
2022-12-25T15:44:18.334Z,5.70
2022-12-25T15:46:46.219Z,5.72
2022-12-25T15:49:14.752Z,6.20
2022-12-25T15:51:42.939Z,7.75
2022-12-25T15:54:10.789Z,7.15
2022-12-25T15:56:46.218Z,6.50
2022-12-25T15:59:14.675Z,5.90
2022-12-25T16:01:49.057Z,8.55
2022-12-25T16:04:16.186Z,7.38
2022-12-25T16:06:43.339Z,9.93
2022-12-25T16:09:12.836Z,10.00
2022-12-25T16:11:40.018Z,12.80
2022-12-25T16:14:07.239Z,12.07
2022-12-25T16:16:34.345Z,8.23
2022-12-25T16:19:01.568Z,10.18
2022-12-25T16:21:50.408Z,8.05
2022-12-25T16:24:17.594Z,9.65
2022-12-25T16:26:44.588Z,10.32
2022-12-25T16:29:11.765Z,9.80
2022-12-25T16:31:39.996Z,9.00
2022-12-25T16:34:07.980Z,7.78
2022-12-25T16:36:35.887Z,6.97
2022-12-25T16:39:04.362Z,6.03
2022-12-25T16:41:31.445Z,5.68
2022-12-25T16:43:58.527Z,5.18
2022-12-25T16:46:25.604Z,5.13
2022-12-25T16:48:52.651Z,4.72
2022-12-25T16:51:21.770Z,5.05
2022-12-25T16:53:48.721Z,4.50
2022-12-25T16:56:18.441Z,4.22
2022-12-25T16:58:47.017Z,3.72
2022-12-25T17:01:20.245Z,3.50
2022-12-25T17:03:48.092Z,4.65
2022-12-25T17:06:25.702Z,4.25
2022-12-25T17:08:56.182Z,4.10
2022-12-25T17:11:29.762Z,3.60
2022-12-25T17:13:59.901Z,4.45
2022-12-25T17:16:29.859Z,4.85
2022-12-25T17:19:01.555Z,4.95
2022-12-25T17:21:29.827Z,5.07
2022-12-25T17:24:02.331Z,4.40
2022-12-25T17:26:31.712Z,3.95
2022-12-25T17:28:58.919Z,4.93
2022-12-25T17:31:26.058Z,4.07
2022-12-25T17:33:53.252Z,4.50
2022-12-25T17:36:21.800Z,4.65
2022-12-25T17:38:48.938Z,5.57
2022-12-25T17:41:17.999Z,6.22
2022-12-25T17:43:45.892Z,5.75
2022-12-25T17:46:17.455Z,5.30
2022-12-25T17:48:45.812Z,5.53
2022-12-25T17:51:18.724Z,6.82
2022-12-25T17:53:48.563Z,7.38
2022-12-25T17:56:16.802Z,8.63
2022-12-25T17:58:44.104Z,10.07
2022-12-25T18:01:14.702Z,11.35
2022-12-25T18:03:42.612Z,12.77
2022-12-25T18:06:14.907Z,13.90
2022-12-25T18:08:43.183Z,13.27
2022-12-25T18:11:15.306Z,13.85
2022-12-25T18:13:45.112Z,13.45
2022-12-25T18:16:13.159Z,13.80
2022-12-25T18:18:40.568Z,13.15
2022-12-25T18:21:08.452Z,14.18
2022-12-25T18:23:36.320Z,14.73
2022-12-25T18:26:05.763Z,14.18
2022-12-25T18:28:33.755Z,13.35
2022-12-25T18:31:01.235Z,12.65
2022-12-25T18:33:28.483Z,13.48
2022-12-25T18:35:59.951Z,12.55
2022-12-25T18:38:27.913Z,11.90
2022-12-25T18:40:56.033Z,11.05
2022-12-25T18:43:53.337Z,11.10
2022-12-25T18:46:10.233Z,11.55
2022-12-25T18:48:37.969Z,10.77
2022-12-25T18:51:11.173Z,11.43
2022-12-25T18:53:38.543Z,11.75
2022-12-25T18:56:11.797Z,10.40
2022-12-25T18:58:40.403Z,10.88
2022-12-25T19:01:22.140Z,9.30
2022-12-25T19:03:50.499Z,8.63
2022-12-25T19:06:23.603Z,8.07
2022-12-25T19:08:50.794Z,8.90
2022-12-25T19:11:18.381Z,9.30
2022-12-25T19:13:45.569Z,9.68
2022-12-25T19:16:13.191Z,10.48
2022-12-25T19:18:40.804Z,10.57
2022-12-25T19:21:09.857Z,10.63
2022-12-25T19:23:38.202Z,12.00
2022-12-25T19:26:06.863Z,11.18
2022-12-25T19:28:34.587Z,12.25
2022-12-25T19:31:07.437Z,12.52
2022-12-25T19:33:37.160Z,12.50
2022-12-25T19:36:10.676Z,12.48
2022-12-25T19:38:38.465Z,13.43
2022-12-25T19:41:07.616Z,13.95
2022-12-25T19:43:38.269Z,14.02
2022-12-25T19:46:06.686Z,14.50
2022-12-25T19:48:34.803Z,13.82
2022-12-25T19:51:01.911Z,14.38
2022-12-25T19:53:30.046Z,13.98
2022-12-25T19:56:01.797Z,13.93
2022-12-25T19:58:30.188Z,14.68
2022-12-25T20:01:02.959Z,13.65
2022-12-25T20:03:30.260Z,13.05
2022-12-25T20:05:57.350Z,13.52
2022-12-25T20:08:24.877Z,12.30
2022-12-25T20:10:52.342Z,12.27
2022-12-25T20:13:20.283Z,11.77
2022-12-25T20:15:48.328Z,12.35
2022-12-25T20:18:16.876Z,12.05
2022-12-25T20:20:45.080Z,12.50
2022-12-25T20:23:12.248Z,11.77
2022-12-25T20:25:41.249Z,11.57
2022-12-25T20:28:09.078Z,11.52
2022-12-25T20:30:39.747Z,11.60
2022-12-25T20:33:06.943Z,12.38
2022-12-25T20:35:33.948Z,12.48
2022-12-25T20:38:01.017Z,13.43
2022-12-25T20:40:28.099Z,12.60
2022-12-25T20:42:55.146Z,11.48
2022-12-25T20:45:22.341Z,9.30
2022-12-25T20:47:49.385Z,7.65
2022-12-25T20:50:16.469Z,7.65
2022-12-25T20:52:43.571Z,8.20
2022-12-25T20:55:10.537Z,7.43
2022-12-25T20:57:37.834Z,7.82
2022-12-25T21:00:05.278Z,7.70
2022-12-25T21:02:36.566Z,8.40
2022-12-25T21:05:05.291Z,7.60
2022-12-25T21:07:32.391Z,6.97
2022-12-25T21:09:59.781Z,7.75
2022-12-25T21:12:26.805Z,7.72
2022-12-25T21:14:53.793Z,7.05
2022-12-25T21:17:20.894Z,6.82
2022-12-25T21:19:48.005Z,7.18
2022-12-25T21:22:15.221Z,7.05
2022-12-25T21:24:42.340Z,7.55
2022-12-25T21:27:09.437Z,7.00
2022-12-25T21:29:36.608Z,7.38
2022-12-25T21:32:22.259Z,6.82
2022-12-25T21:34:49.272Z,6.72
2022-12-25T21:37:16.309Z,7.05
2022-12-25T21:39:43.306Z,6.95
2022-12-25T21:42:10.915Z,6.68
2022-12-25T21:44:38.006Z,6.00
2022-12-25T21:47:05.017Z,5.82
2022-12-25T21:49:50.564Z,6.60
2022-12-25T21:52:17.743Z,5.10
2022-12-25T21:54:44.845Z,5.75
2022-12-25T21:57:11.837Z,5.40
2022-12-25T21:59:38.966Z,6.05
2022-12-25T22:02:11.471Z,5.78
2022-12-25T22:04:39.158Z,6.30
2022-12-25T22:07:18.035Z,5.93
2022-12-25T22:09:51.368Z,5.60
2022-12-25T22:12:41.435Z,5.90
2022-12-25T22:15:10.585Z,5.60
2022-12-25T22:17:59.075Z,5.10
2022-12-25T22:20:30.153Z,5.97
2022-12-25T22:22:58.294Z,5.72
2022-12-25T22:25:25.439Z,6.00
2022-12-25T22:27:52.603Z,5.63
2022-12-25T22:30:25.745Z,5.40
2022-12-25T22:32:53.016Z,5.40
2022-12-25T22:35:21.023Z,5.10
2022-12-25T22:37:49.637Z,5.20
2022-12-25T22:40:18.261Z,4.63
2022-12-25T22:42:45.644Z,4.63
2022-12-25T22:45:13.098Z,4.30
2022-12-25T22:47:40.437Z,4.45
2022-12-25T22:50:08.369Z,4.40
2022-12-25T22:52:36.208Z,4.38
2022-12-25T22:55:05.130Z,4.63
2022-12-25T22:57:32.133Z,4.93
2022-12-25T22:59:59.331Z,4.25
2022-12-25T23:02:26.972Z,4.90
2022-12-25T23:04:54.106Z,4.78
2022-12-25T23:07:21.340Z,5.15
2022-12-25T23:09:48.340Z,4.90
2022-12-25T23:12:33.977Z,5.45
2022-12-25T23:15:01.074Z,5.30
2022-12-25T23:17:46.582Z,5.78
2022-12-25T23:20:33.451Z,5.68
2022-12-25T23:23:19.748Z,5.97
2022-12-25T23:26:05.327Z,5.53
2022-12-25T23:28:51.152Z,5.88
2022-12-25T23:31:20.760Z,5.65
2022-12-25T23:33:47.824Z,5.70
2022-12-25T23:36:14.818Z,5.18
2022-12-25T23:38:41.884Z,5.65
2022-12-25T23:41:08.986Z,5.20
2022-12-25T23:43:35.960Z,5.03
2022-12-25T23:46:03.301Z,5.07
2022-12-25T23:48:30.289Z,4.55
2022-12-25T23:51:02.166Z,4.80
2022-12-25T23:53:29.240Z,4.57
2022-12-25T23:55:57.638Z,4.60
2022-12-25T23:58:26.428Z,4.35
